createdAt,value
2017-09-25T00:01:02.388Z,100939.53
2017-09-25T00:03:31.481Z,100936.53
2017-09-25T00:06:01.590Z,100934.77
2017-09-25T00:08:30.673Z,100933.80
2017-09-25T00:10:59.722Z,100939.47
2017-09-25T00:13:28.792Z,100941.00
2017-09-25T00:15:57.880Z,100934.80
2017-09-25T00:18:26.973Z,100926.93
2017-09-25T00:20:56.786Z,100926.39
2017-09-25T00:23:25.857Z,100922.98
2017-09-25T00:25:55.683Z,100919.88
2017-09-25T00:28:24.748Z,100915.42
2017-09-25T00:30:54.599Z,100911.43
2017-09-25T00:33:23.954Z,100909.83
2017-09-25T00:35:53.025Z,100903.97
2017-09-25T00:38:22.092Z,100901.70
2017-09-25T00:40:51.166Z,100896.96
2017-09-25T00:43:20.498Z,100893.32
2017-09-25T00:45:50.350Z,100887.95
2017-09-25T00:48:19.433Z,100894.87
2017-09-25T00:50:49.234Z,100893.09
2017-09-25T00:56:13.500Z,100895.25
2017-09-25T00:58:42.559Z,100896.52
2017-09-25T01:01:14.413Z,100890.13
2017-09-25T01:03:56.957Z,100898.73
2017-09-25T01:06:27.471Z,100900.88
2017-09-25T01:08:57.571Z,100903.23
2017-09-25T01:11:26.652Z,100892.86
2017-09-25T01:13:55.735Z,100893.82
2017-09-25T01:16:24.806Z,100889.48
2017-09-25T01:18:53.875Z,100887.55
2017-09-25T01:21:23.696Z,100881.98
2017-09-25T01:23:53.531Z,100876.17
2017-09-25T01:26:22.608Z,100867.44
2017-09-25T01:28:52.424Z,100867.12
2017-09-25T01:31:21.504Z,100865.52
2017-09-25T01:33:50.560Z,100864.55
2017-09-25T01:36:19.630Z,100868.83
2017-09-25T01:38:48.716Z,100862.50
2017-09-25T01:41:17.812Z,100863.69
2017-09-25T01:43:46.862Z,100863.02
2017-09-25T01:46:15.927Z,100866.19
2017-09-25T01:48:44.983Z,100869.95
2017-09-25T01:51:14.059Z,100867.12
2017-09-25T01:53:43.880Z,100870.83
2017-09-25T01:56:13.717Z,100869.28
2017-09-25T01:58:42.772Z,100868.30
2017-09-25T02:01:12.609Z,100858.05
2017-09-25T02:03:41.686Z,100860.85
2017-09-25T02:06:10.719Z,100857.64
2017-09-25T02:08:39.813Z,100851.94
2017-09-25T02:11:08.908Z,100852.50
2017-09-25T02:13:37.986Z,100851.83
2017-09-25T02:16:07.056Z,100851.63
2017-09-25T02:18:36.158Z,100853.27
2017-09-25T02:21:05.232Z,100856.73
2017-09-25T02:23:34.305Z,100852.75
2017-09-25T02:26:03.367Z,100856.03
2017-09-25T02:28:32.597Z,100855.47
2017-09-25T02:31:01.656Z,100857.34
2017-09-25T02:33:31.485Z,100849.15
2017-09-25T02:36:00.580Z,100848.95
2017-09-25T02:38:29.652Z,100847.92
2017-09-25T02:40:59.494Z,100850.09
2017-09-25T02:43:28.597Z,100848.95
2017-09-25T02:45:57.703Z,100852.75
2017-09-25T02:48:26.768Z,100847.45
2017-09-25T02:50:55.858Z,100845.76
2017-09-25T02:53:24.920Z,100845.30
2017-09-25T02:55:54.031Z,100838.59
2017-09-25T02:58:23.086Z,100841.80
2017-09-25T03:00:52.161Z,100840.83
2017-09-25T03:03:21.245Z,100838.43
2017-09-25T03:05:50.324Z,100840.77
2017-09-25T03:08:20.157Z,100836.44
2017-09-25T03:10:49.216Z,100845.69
2017-09-25T03:13:19.051Z,100844.39
2017-09-25T03:15:48.114Z,100840.73
2017-09-25T03:18:17.206Z,100838.47
2017-09-25T03:20:46.582Z,100844.56
2017-09-25T03:23:15.638Z,100846.26
2017-09-25T03:25:44.936Z,100832.77
2017-09-25T03:28:13.996Z,100830.84
2017-09-25T03:30:43.108Z,100835.27
2017-09-25T03:33:12.160Z,100829.08
2017-09-25T03:35:41.221Z,100836.94
2017-09-25T03:38:10.320Z,100829.74
2017-09-25T03:40:39.371Z,100841.75
2017-09-25T03:43:08.451Z,100841.61
2017-09-25T03:45:37.520Z,100841.30
2017-09-25T03:48:06.616Z,100843.63
2017-09-25T03:50:35.896Z,100836.95
2017-09-25T03:53:05.744Z,100839.52
2017-09-25T03:55:35.124Z,100841.58
2017-09-25T03:58:04.180Z,100839.98
2017-09-25T04:00:33.341Z,100832.27
2017-09-25T04:03:02.435Z,100834.20
2017-09-25T04:05:31.508Z,100832.80
2017-09-25T04:08:00.584Z,100835.14
2017-09-25T04:10:29.665Z,100825.84
2017-09-25T04:12:59.503Z,100824.24
2017-09-25T04:15:28.570Z,100823.94
2017-09-25T04:17:58.424Z,100827.56
2017-09-25T04:20:27.470Z,100825.62
2017-09-25T04:22:56.536Z,100827.96
2017-09-25T04:25:25.614Z,100821.87
2017-09-25T04:27:54.686Z,100817.04
2017-09-25T04:30:23.760Z,100814.71
2017-09-25T04:32:53.579Z,100818.41
2017-09-25T04:35:23.445Z,100818.91
2017-09-25T04:37:52.525Z,100830.14
2017-09-25T04:40:21.645Z,100831.61
2017-09-25T04:42:51.478Z,100834.06
2017-09-25T04:45:20.564Z,100834.23
2017-09-25T04:47:49.652Z,100837.70
2017-09-25T04:50:19.572Z,100840.80
2017-09-25T04:52:48.659Z,100837.50
2017-09-25T04:55:17.728Z,100842.48
2017-09-25T04:57:46.790Z,100842.17
2017-09-25T05:00:16.641Z,100846.81
2017-09-25T05:02:45.717Z,100850.43
2017-09-25T05:05:14.972Z,100856.03
2017-09-25T05:07:44.046Z,100859.97
2017-09-25T05:10:13.132Z,100859.88
2017-09-25T05:12:42.191Z,100857.81
2017-09-25T05:15:12.049Z,100856.11
2017-09-25T05:17:41.961Z,100855.22
2017-09-25T05:20:11.114Z,100858.75
2017-09-25T05:22:41.182Z,100853.58
2017-09-25T05:25:10.254Z,100857.01
2017-09-25T05:27:39.292Z,100863.27
2017-09-25T05:30:08.376Z,100862.28
2017-09-25T05:32:37.467Z,100867.81
2017-09-25T05:35:06.559Z,100866.65
2017-09-25T05:37:35.898Z,100874.02
2017-09-25T05:40:04.987Z,100876.12
2017-09-25T05:42:34.045Z,100862.22
2017-09-25T05:45:03.111Z,100870.81
2017-09-25T05:47:32.547Z,100877.58
2017-09-25T05:50:01.629Z,100876.72
2017-09-25T05:52:30.682Z,100876.97
2017-09-25T05:55:00.516Z,100874.56
2017-09-25T05:57:29.584Z,100867.34
2017-09-25T05:59:58.676Z,100874.97
2017-09-25T06:02:27.805Z,100871.94
2017-09-25T06:04:57.645Z,100870.31
2017-09-25T06:07:26.801Z,100873.43
2017-09-25T06:09:56.645Z,100867.91
2017-09-25T06:12:26.102Z,100871.20
2017-09-25T06:14:55.303Z,100860.67
2017-09-25T06:17:25.149Z,100866.94
2017-09-25T06:19:54.231Z,100864.70
2017-09-25T06:22:23.310Z,100863.55
2017-09-25T06:24:52.375Z,100865.08
2017-09-25T06:27:21.466Z,100858.81
2017-09-25T06:29:50.513Z,100859.81
2017-09-25T06:32:19.607Z,100871.53
2017-09-25T06:34:49.448Z,100866.64
2017-09-25T06:37:18.542Z,100857.59
2017-09-25T06:39:47.604Z,100868.36
2017-09-25T06:42:17.443Z,100858.87
2017-09-25T06:44:46.504Z,100863.91
2017-09-25T06:47:16.345Z,100863.52
2017-09-25T06:49:45.682Z,100863.50
2017-09-25T06:52:14.738Z,100862.94
2017-09-25T06:54:43.853Z,100870.37
2017-09-25T06:57:12.911Z,100858.98
2017-09-25T06:59:41.983Z,100859.84
2017-09-25T07:02:11.059Z,100862.17
2017-09-25T07:04:40.133Z,100855.91
2017-09-25T07:07:09.196Z,100860.41
2017-09-25T07:09:39.049Z,100852.91
2017-09-25T07:12:08.125Z,100852.20
2017-09-25T07:14:37.181Z,100847.27
2017-09-25T07:17:06.250Z,100850.91
2017-09-25T07:19:35.336Z,100846.72
2017-09-25T07:22:04.480Z,100844.56
2017-09-25T07:24:35.003Z,100841.38
2017-09-25T07:27:06.978Z,100841.71
2017-09-25T07:29:36.041Z,100850.45
2017-09-25T07:32:05.151Z,100842.87
2017-09-25T07:34:40.042Z,100841.45
2017-09-25T07:37:09.177Z,100843.48
2017-09-25T07:39:38.253Z,100843.64
2017-09-25T07:42:07.336Z,100840.03
2017-09-25T07:44:36.408Z,100835.27
2017-09-25T07:47:05.471Z,100838.58
2017-09-25T07:49:37.272Z,100839.52
2017-09-25T07:52:07.380Z,100833.37
2017-09-25T07:54:36.455Z,100833.86
2017-09-25T07:57:06.279Z,100836.05
2017-09-25T07:59:35.361Z,100837.48
2017-09-25T08:02:05.192Z,100834.48
2017-09-25T08:04:34.366Z,100832.11
2017-09-25T08:07:05.745Z,100835.55
2017-09-25T08:09:35.881Z,100834.78
2017-09-25T08:12:04.943Z,100838.61
2017-09-25T08:14:34.021Z,100837.40
2017-09-25T08:17:03.858Z,100834.64
2017-09-25T08:19:32.968Z,100840.77
2017-09-25T08:22:02.012Z,100836.41
2017-09-25T08:24:31.109Z,100842.38
2017-09-25T08:27:00.148Z,100848.27
2017-09-25T08:29:29.231Z,100845.27
2017-09-25T08:31:58.310Z,100857.16
2017-09-25T08:34:28.223Z,100844.65
2017-09-25T08:36:57.308Z,100845.84
2017-09-25T08:39:26.381Z,100851.55
2017-09-25T08:41:55.468Z,100847.44
2017-09-25T08:44:24.532Z,100847.61
2017-09-25T08:46:53.605Z,100853.23
2017-09-25T08:49:23.436Z,100856.94
2017-09-25T08:51:52.508Z,100856.87
2017-09-25T08:54:22.693Z,100857.47
2017-09-25T08:56:51.740Z,100852.07
2017-09-25T08:59:20.825Z,100854.41
2017-09-25T09:01:49.922Z,100855.83
2017-09-25T09:04:19.763Z,100852.06
2017-09-25T09:06:48.849Z,100846.58
2017-09-25T09:09:17.910Z,100855.61
2017-09-25T09:11:46.988Z,100852.23
2017-09-25T09:14:16.059Z,100854.92
2017-09-25T09:16:45.121Z,100856.56
2017-09-25T09:19:14.197Z,100844.34
2017-09-25T09:21:43.395Z,100839.16
2017-09-25T09:24:12.495Z,100844.01
2017-09-25T09:26:41.566Z,100843.70
2017-09-25T09:29:10.905Z,100847.75
2017-09-25T09:31:41.074Z,100848.71
2017-09-25T09:34:10.165Z,100846.74
2017-09-25T09:36:39.215Z,100845.22
2017-09-25T09:39:08.338Z,100838.17
2017-09-25T09:41:37.381Z,100837.95
2017-09-25T09:44:06.457Z,100828.67
2017-09-25T09:46:35.514Z,100829.38
2017-09-25T09:49:04.592Z,100827.52
2017-09-25T09:51:34.416Z,100824.55
2017-09-25T09:54:03.477Z,100823.77
2017-09-25T09:56:32.591Z,100826.36
2017-09-25T09:59:02.448Z,100826.45
2017-09-25T10:01:31.497Z,100823.92
2017-09-25T10:04:01.340Z,100828.59
2017-09-25T10:06:30.534Z,100826.34
2017-09-25T10:09:00.449Z,100819.78
2017-09-25T10:11:30.264Z,100822.70
2017-09-25T10:13:59.340Z,100824.73
2017-09-25T10:16:28.429Z,100822.74
2017-09-25T10:18:58.264Z,100818.69
2017-09-25T10:21:28.077Z,100816.16
2017-09-25T10:23:57.154Z,100813.43
2017-09-25T10:26:27.015Z,100813.14
2017-09-25T10:28:56.325Z,100811.19
2017-09-25T10:31:25.391Z,100808.77
2017-09-25T10:33:54.480Z,100810.61
2017-09-25T10:36:23.585Z,100815.90
2017-09-25T10:38:52.663Z,100813.08
2017-09-25T10:41:21.856Z,100804.83
2017-09-25T10:43:50.945Z,100803.37
2017-09-25T10:46:20.762Z,100804.56
2017-09-25T10:48:50.596Z,100810.76
2017-09-25T10:51:19.665Z,100814.79
2017-09-25T10:53:49.501Z,100804.13
2017-09-25T10:56:18.579Z,100807.36
2017-09-25T10:58:47.937Z,100810.09
2017-09-25T11:01:17.003Z,100810.80
2017-09-25T11:03:46.068Z,100801.07
2017-09-25T11:06:15.901Z,100804.19
2017-09-25T11:08:44.980Z,100810.53
2017-09-25T11:11:14.056Z,100798.59
2017-09-25T11:13:43.109Z,100797.34
2017-09-25T11:16:12.194Z,100794.05
2017-09-25T11:18:41.286Z,100793.08
2017-09-25T11:21:10.323Z,100787.06
2017-09-25T11:23:39.395Z,100780.64
2017-09-25T11:26:08.471Z,100777.53
2017-09-25T11:28:37.551Z,100783.47
2017-09-25T11:31:06.640Z,100774.74
2017-09-25T11:33:36.452Z,100769.55
2017-09-25T11:36:05.576Z,100776.67
2017-09-25T11:38:34.627Z,100775.66
2017-09-25T11:41:04.586Z,100773.84
2017-09-25T11:43:33.647Z,100769.72
2017-09-25T11:46:03.496Z,100767.02
2017-09-25T11:48:32.556Z,100774.72
2017-09-25T11:51:02.719Z,100772.27
2017-09-25T11:53:33.345Z,100765.41
2017-09-25T11:56:02.398Z,100769.23
2017-09-25T11:58:32.259Z,100755.37
2017-09-25T12:01:02.379Z,100762.48
2017-09-25T12:03:31.457Z,100758.36
2017-09-25T12:06:00.524Z,100761.84
2017-09-25T12:08:30.365Z,100759.22
2017-09-25T12:10:59.447Z,100759.84
2017-09-25T12:13:28.489Z,100759.75
2017-09-25T12:15:57.560Z,100759.20
2017-09-25T12:18:26.619Z,100765.08
2017-09-25T12:20:56.485Z,100760.25
2017-09-25T12:23:25.579Z,100764.66
2017-09-25T12:25:54.644Z,100763.77
2017-09-25T12:28:23.727Z,100761.48
2017-09-25T12:30:52.783Z,100764.52
2017-09-25T12:33:22.579Z,100761.61
2017-09-25T12:35:52.595Z,100758.97
2017-09-25T12:38:21.691Z,100757.83
2017-09-25T12:40:50.827Z,100754.88
2017-09-25T12:43:20.657Z,100753.76
2017-09-25T12:45:50.626Z,100757.91
2017-09-25T12:48:19.678Z,100752.88
2017-09-25T12:50:48.760Z,100747.14
2017-09-25T12:53:18.596Z,100750.75
2017-09-25T12:55:47.936Z,100753.05
2017-09-25T12:58:16.991Z,100748.58
2017-09-25T13:00:46.827Z,100747.02
2017-09-25T13:03:15.924Z,100745.89
2017-09-25T13:05:45.012Z,100747.14
2017-09-25T13:08:14.075Z,100749.41
2017-09-25T13:10:43.184Z,100748.95
2017-09-25T13:13:12.239Z,100743.57
2017-09-25T13:15:42.118Z,100747.48
2017-09-25T13:18:11.227Z,100749.13
2017-09-25T13:20:40.332Z,100743.56
2017-09-25T13:23:09.399Z,100747.56
2017-09-25T13:25:38.456Z,100746.16
2017-09-25T13:28:07.543Z,100749.44
2017-09-25T13:30:37.723Z,100745.65
2017-09-25T13:33:06.789Z,100741.55
2017-09-25T13:35:39.059Z,100740.60
2017-09-25T13:38:08.116Z,100744.58
2017-09-25T13:40:37.963Z,100741.83
2017-09-25T13:43:07.028Z,100743.14
2017-09-25T13:45:36.099Z,100743.66
2017-09-25T13:48:05.167Z,100740.14
2017-09-25T13:50:34.237Z,100741.00
2017-09-25T13:53:03.448Z,100735.46
2017-09-25T13:55:32.494Z,100735.34
2017-09-25T13:58:01.569Z,100733.05
2017-09-25T14:03:04.935Z,100730.27
2017-09-25T14:05:33.994Z,100731.16
2017-09-25T14:08:03.057Z,100733.70
2017-09-25T14:10:32.130Z,100723.91
2017-09-25T14:13:01.194Z,100729.23
2017-09-25T14:15:30.333Z,100725.05
2017-09-25T14:17:59.400Z,100730.94
2017-09-25T14:20:29.225Z,100737.23
2017-09-25T14:22:58.331Z,100734.18
2017-09-25T14:25:28.232Z,100721.31
2017-09-25T14:27:57.304Z,100730.79
2017-09-25T14:30:27.151Z,100737.39
2017-09-25T14:32:56.258Z,100726.97
2017-09-25T14:35:25.298Z,100731.09
2017-09-25T14:37:54.516Z,100725.69
2017-09-25T14:40:24.488Z,100724.19
2017-09-25T14:42:53.561Z,100723.61
2017-09-25T14:45:22.612Z,100727.40
2017-09-25T14:47:51.745Z,100723.70
2017-09-25T14:50:20.788Z,100721.19
2017-09-25T14:52:49.945Z,100719.11
2017-09-25T14:55:19.023Z,100712.56
2017-09-25T14:57:48.102Z,100719.04
2017-09-25T15:00:17.921Z,100721.14
2017-09-25T15:02:47.003Z,100727.87
2017-09-25T15:05:16.862Z,100726.83
2017-09-25T15:07:45.934Z,100723.27
2017-09-25T15:10:15.040Z,100731.23
2017-09-25T15:12:44.107Z,100729.28
2017-09-25T15:15:14.156Z,100731.03
2017-09-25T15:17:43.212Z,100730.39
2017-09-25T15:20:13.062Z,100721.52
2017-09-25T15:22:42.238Z,100728.56
2017-09-25T15:25:12.066Z,100721.72
2017-09-25T15:27:41.150Z,100724.55
2017-09-25T15:30:10.198Z,100722.17
2017-09-25T15:32:39.276Z,100722.33
2017-09-25T15:35:08.356Z,100720.39
2017-09-25T15:37:37.424Z,100714.86
2017-09-25T15:40:07.347Z,100721.16
2017-09-25T15:42:37.208Z,100728.04
2017-09-25T15:45:06.308Z,100727.09
2017-09-25T15:47:36.214Z,100721.77
2017-09-25T15:50:05.267Z,100730.15
2017-09-25T15:52:34.352Z,100734.16
2017-09-25T15:55:03.454Z,100739.44
2017-09-25T15:57:33.273Z,100734.67
2017-09-25T16:00:02.349Z,100741.15
2017-09-25T16:02:32.190Z,100737.58
2017-09-25T16:05:01.266Z,100741.05
2017-09-25T16:07:31.123Z,100740.05
2017-09-25T16:10:00.178Z,100739.90
2017-09-25T16:12:30.027Z,100740.66
2017-09-25T16:14:59.088Z,100742.25
2017-09-25T16:17:28.148Z,100746.25
2017-09-25T16:19:57.228Z,100733.14
2017-09-25T16:22:26.323Z,100735.64
2017-09-25T16:24:55.385Z,100740.93
2017-09-25T16:27:24.476Z,100743.98
2017-09-25T16:29:53.645Z,100747.42
2017-09-25T16:32:23.472Z,100751.72
2017-09-25T16:34:52.544Z,100749.13
2017-09-25T16:37:22.387Z,100752.08
2017-09-25T16:39:51.471Z,100750.03
2017-09-25T16:42:21.654Z,100760.66
2017-09-25T16:44:50.754Z,100755.51
2017-09-25T16:47:19.856Z,100758.55
2017-09-25T16:49:48.918Z,100753.00
2017-09-25T16:52:17.990Z,100756.41
2017-09-25T16:54:47.061Z,100755.39
2017-09-25T16:57:16.164Z,100758.33
2017-09-25T16:59:46.031Z,100755.54
2017-09-25T17:02:15.095Z,100756.88
2017-09-25T17:04:44.168Z,100755.80
2017-09-25T17:07:14.019Z,100759.08
2017-09-25T17:09:44.059Z,100757.09
2017-09-25T17:12:13.122Z,100755.20
2017-09-25T17:14:42.267Z,100752.06
2017-09-25T17:17:11.461Z,100751.48
2017-09-25T17:19:42.309Z,100756.72
2017-09-25T17:22:12.333Z,100763.65
2017-09-25T17:24:42.431Z,100756.56
2017-09-25T17:27:11.837Z,100759.56
2017-09-25T17:29:42.997Z,100756.95
2017-09-25T17:32:12.483Z,100764.81
2017-09-25T17:34:41.942Z,100765.67
2017-09-25T17:37:11.367Z,100772.23
2017-09-25T17:39:40.916Z,100764.64
2017-09-25T17:42:11.807Z,100765.28
2017-09-25T17:44:40.994Z,100767.96
2017-09-25T17:47:10.825Z,100768.09
2017-09-25T17:49:40.153Z,100774.64
2017-09-25T17:52:09.367Z,100773.09
2017-09-25T17:54:39.220Z,100773.25
2017-09-25T17:57:08.334Z,100776.92
2017-09-25T17:59:37.439Z,100778.19
2017-09-25T18:02:06.752Z,100787.66
2017-09-25T18:04:35.847Z,100778.88
2017-09-25T18:07:04.928Z,100785.73
2017-09-25T18:09:33.971Z,100790.58
2017-09-25T18:12:03.817Z,100790.27
2017-09-25T18:14:32.901Z,100785.53
2017-09-25T18:17:02.108Z,100788.91
2017-09-25T18:19:31.466Z,100792.73
2017-09-25T18:22:00.529Z,100784.19
2017-09-25T18:24:29.695Z,100793.25
2017-09-25T18:26:58.835Z,100783.75
2017-09-25T18:29:27.898Z,100794.40
2017-09-25T18:31:56.976Z,100796.65
2017-09-25T18:34:26.455Z,100799.22
2017-09-25T18:36:56.356Z,100796.36
2017-09-25T18:39:25.442Z,100795.34
2017-09-25T18:41:54.518Z,100802.81
2017-09-25T18:44:23.581Z,100802.50
2017-09-25T18:46:53.429Z,100803.07
2017-09-25T18:49:22.496Z,100806.48
2017-09-25T18:51:51.556Z,100802.94
2017-09-25T18:54:20.665Z,100802.99
2017-09-25T18:56:51.143Z,100799.10
2017-09-25T18:59:20.220Z,100801.92
2017-09-25T19:01:49.302Z,100799.80
2017-09-25T19:04:18.389Z,100802.50
2017-09-25T19:06:47.477Z,100802.45
2017-09-25T19:09:17.317Z,100794.94
2017-09-25T19:11:46.395Z,100796.84
2017-09-25T19:14:15.463Z,100802.55
2017-09-25T19:16:44.614Z,100798.96
2017-09-25T19:19:13.735Z,100802.95
2017-09-25T19:21:42.802Z,100806.56
2017-09-25T19:24:11.890Z,100807.31
2017-09-25T19:26:40.948Z,100804.88
2017-09-25T19:29:10.815Z,100806.20
2017-09-25T19:31:39.966Z,100806.91
2017-09-25T19:34:09.811Z,100807.92
2017-09-25T19:36:38.899Z,100807.07
2017-09-25T19:39:07.979Z,100804.67
2017-09-25T19:41:37.824Z,100805.01
2017-09-25T19:44:06.918Z,100802.52
2017-09-25T19:46:36.029Z,100810.22
2017-09-25T19:49:06.420Z,100807.31
2017-09-25T19:51:35.526Z,100805.19
2017-09-25T19:54:05.018Z,100800.63
2017-09-25T19:59:38.798Z,100803.32
2017-09-25T20:02:07.864Z,100806.21
2017-09-25T20:04:36.922Z,100807.41
2017-09-25T20:07:06.820Z,100804.09
2017-09-25T20:09:35.900Z,100807.69
2017-09-25T20:12:04.977Z,100809.28
2017-09-25T20:14:35.417Z,100816.13
2017-09-25T20:17:05.826Z,100819.05
2017-09-25T20:19:34.901Z,100822.07
2017-09-25T20:22:04.057Z,100818.94
2017-09-25T20:24:33.100Z,100815.94
2017-09-25T20:27:02.191Z,100820.05
2017-09-25T20:29:31.273Z,100823.70
2017-09-25T20:32:01.090Z,100817.52
2017-09-25T20:34:30.144Z,100816.11
